createdAt,value
2019-06-07T00:02:16.587Z,5.87
2019-06-07T00:04:48.949Z,6.20
2019-06-07T00:07:21.734Z,4.97
2019-06-07T00:09:53.636Z,5.50
2019-06-07T00:12:25.265Z,4.87
2019-06-07T00:14:57.006Z,4.60
2019-06-07T00:17:28.833Z,4.83
2019-06-07T00:20:01.044Z,5.27
2019-06-07T00:22:33.819Z,6.20
2019-06-07T00:25:06.204Z,4.83
2019-06-07T00:27:37.991Z,6.03
2019-06-07T00:32:44.800Z,6.20
2019-06-07T00:35:19.403Z,6.57
2019-06-07T00:37:50.629Z,6.07
2019-06-07T00:40:31.590Z,6.23
2019-06-07T00:42:55.600Z,6.17
2019-06-07T00:45:27.354Z,6.17
2019-06-07T00:47:59.006Z,6.23
2019-06-07T00:50:31.244Z,5.73
2019-06-07T00:53:29.164Z,6.10
2019-06-07T00:55:36.873Z,8.00
2019-06-07T00:58:08.651Z,6.83
2019-06-07T01:00:40.990Z,6.70
2019-06-07T01:03:12.796Z,6.57
2019-06-07T01:05:44.499Z,6.90
2019-06-07T01:08:19.955Z,6.27
2019-06-07T01:10:54.290Z,7.07
2019-06-07T01:13:26.207Z,6.90
2019-06-07T01:15:57.218Z,6.57
2019-06-07T01:18:41.045Z,6.20
2019-06-07T01:21:02.398Z,6.50
2019-06-07T01:24:04.965Z,6.50
2019-06-07T01:26:08.555Z,6.30
2019-06-07T01:28:40.867Z,7.03
2019-06-07T01:31:12.644Z,7.23
2019-06-07T01:33:51.037Z,7.30
2019-06-07T01:36:19.571Z,6.70
2019-06-07T01:38:52.408Z,7.17
2019-06-07T01:41:25.961Z,6.97
2019-06-07T01:43:57.721Z,8.37
2019-06-07T01:46:29.449Z,7.70
2019-06-07T01:49:01.244Z,8.33
2019-06-07T01:51:32.991Z,8.00
2019-06-07T01:56:38.665Z,8.07
2019-06-07T01:59:10.407Z,8.17
2019-06-07T02:01:42.233Z,7.83
2019-06-07T02:04:13.881Z,7.97
2019-06-07T02:06:45.690Z,8.60
2019-06-07T02:09:18.471Z,9.17
2019-06-07T02:11:50.213Z,8.13
2019-06-07T02:14:24.055Z,9.03
2019-06-07T02:16:55.228Z,8.17
2019-06-07T02:19:31.144Z,8.90
2019-06-07T02:22:00.361Z,9.40
2019-06-07T02:24:35.784Z,8.87
2019-06-07T02:27:06.140Z,8.70
2019-06-07T02:29:37.953Z,9.30
2019-06-07T02:32:09.620Z,8.47
2019-06-07T02:34:41.341Z,8.10
2019-06-07T02:37:12.998Z,8.40
2019-06-07T02:39:45.245Z,9.80
2019-06-07T02:42:16.980Z,9.47
2019-06-07T02:44:48.882Z,8.67
2019-06-07T02:47:20.623Z,10.07
2019-06-07T02:49:52.478Z,10.37
2019-06-07T02:52:28.726Z,9.50
2019-06-07T02:54:58.256Z,10.20
2019-06-07T02:57:36.901Z,9.60
2019-06-07T03:00:26.987Z,10.57
2019-06-07T03:02:41.180Z,8.70
2019-06-07T03:05:10.925Z,10.33
2019-06-07T03:07:45.894Z,9.10
2019-06-07T03:10:18.452Z,8.77
2019-06-07T03:12:51.190Z,9.90
2019-06-07T03:15:35.312Z,9.97
2019-06-07T03:18:08.935Z,9.27
2019-06-07T03:20:41.847Z,9.47
2019-06-07T03:23:14.245Z,9.20
2019-06-07T03:25:49.406Z,9.83
2019-06-07T03:28:21.773Z,9.97
2019-06-07T03:31:02.155Z,9.83
2019-06-07T03:33:29.233Z,9.17
2019-06-07T03:36:13.114Z,8.87
2019-06-07T03:38:35.271Z,9.40
2019-06-07T03:41:07.765Z,8.80
2019-06-07T03:43:40.747Z,10.13
2019-06-07T03:46:12.663Z,9.70
2019-06-07T03:48:44.303Z,8.90
2019-06-07T03:51:24.734Z,9.60
2019-06-07T03:53:49.402Z,10.53
2019-06-07T03:56:21.734Z,8.97
2019-06-07T03:58:53.470Z,8.70
2019-06-07T04:01:25.115Z,11.60
2019-06-07T04:03:56.728Z,9.20
2019-06-07T04:06:30.913Z,9.73
2019-06-07T04:09:01.884Z,9.00
2019-06-07T04:11:35.187Z,8.80
2019-06-07T04:14:09.162Z,9.13
2019-06-07T04:16:44.750Z,8.90
2019-06-07T04:19:15.982Z,8.40
2019-06-07T04:21:47.639Z,9.53
2019-06-07T04:24:19.264Z,9.23
2019-06-07T04:26:51.535Z,9.57
2019-06-07T04:29:34.038Z,9.30
2019-06-07T04:31:56.845Z,9.00
2019-06-07T04:34:29.315Z,7.67
2019-06-07T04:37:02.905Z,8.50
2019-06-07T04:39:40.656Z,8.60
2019-06-07T04:42:11.117Z,8.60
2019-06-07T04:44:43.243Z,8.80
2019-06-07T04:47:15.930Z,8.73
2019-06-07T04:49:51.496Z,7.70
2019-06-07T04:52:23.199Z,7.60
2019-06-07T04:54:54.841Z,7.30
2019-06-07T04:57:27.071Z,7.60
2019-06-07T05:00:22.253Z,7.33
2019-06-07T05:02:34.560Z,7.87
2019-06-07T05:05:06.057Z,7.13
2019-06-07T05:07:39.561Z,8.00
2019-06-07T05:10:11.348Z,7.13
2019-06-07T05:12:44.389Z,7.50
2019-06-07T05:15:16.379Z,6.87
2019-06-07T05:17:48.021Z,8.00
2019-06-07T05:20:19.771Z,7.17
2019-06-07T05:22:51.438Z,7.60
2019-06-07T05:25:23.108Z,7.53
2019-06-07T05:27:55.442Z,6.97
2019-06-07T05:33:14.089Z,7.10
2019-06-07T05:35:45.774Z,7.27
2019-06-07T05:38:17.450Z,7.60
2019-06-07T05:40:49.223Z,8.03
2019-06-07T05:43:29.732Z,7.33
2019-06-07T05:46:01.475Z,7.87
2019-06-07T05:48:34.167Z,7.80
2019-06-07T05:51:06.121Z,6.70
2019-06-07T05:53:39.008Z,8.17
2019-06-07T05:56:12.192Z,7.17
2019-06-07T05:58:44.811Z,7.37
2019-06-07T06:03:49.976Z,7.83
2019-06-07T06:06:21.693Z,7.00
2019-06-07T06:09:11.003Z,7.60
2019-06-07T06:11:43.320Z,6.83
2019-06-07T06:14:07.717Z,7.13
2019-06-07T06:16:34.679Z,6.83
2019-06-07T06:19:06.288Z,7.63
2019-06-07T06:21:38.510Z,7.00
2019-06-07T06:24:10.494Z,6.40
2019-06-07T06:26:49.926Z,5.90
2019-06-07T06:29:16.079Z,6.03
2019-06-07T06:32:35.540Z,6.73
2019-06-07T06:34:21.147Z,6.40
2019-06-07T06:36:52.899Z,5.47
2019-06-07T06:39:24.632Z,5.97
2019-06-07T06:42:03.145Z,4.93
2019-06-07T06:44:30.391Z,5.27
2019-06-07T06:47:02.074Z,5.87
2019-06-07T06:49:33.926Z,5.60
2019-06-07T06:52:05.708Z,5.63
2019-06-07T06:54:43.069Z,5.10
2019-06-07T06:57:19.431Z,5.50
2019-06-07T06:59:47.547Z,4.77
2019-06-07T07:02:18.420Z,4.40
2019-06-07T07:04:53.425Z,4.87
2019-06-07T07:07:24.074Z,5.50
2019-06-07T07:09:59.289Z,5.17
2019-06-07T07:12:30.144Z,4.60
2019-06-07T07:15:01.799Z,4.30
2019-06-07T07:17:50.665Z,4.43
2019-06-07T07:20:07.553Z,4.07
2019-06-07T07:22:39.543Z,4.40
2019-06-07T07:25:11.672Z,4.80
2019-06-07T07:27:44.613Z,4.77
2019-06-07T07:30:35.987Z,4.53
2019-06-07T07:32:54.118Z,4.10
2019-06-07T07:35:25.616Z,4.60
2019-06-07T07:37:59.760Z,4.50
2019-06-07T07:43:04.339Z,3.83
2019-06-07T07:45:36.000Z,3.80
2019-06-07T07:48:17.642Z,3.73
2019-06-07T07:50:41.589Z,3.70
2019-06-07T07:53:13.259Z,4.03
2019-06-07T07:55:49.494Z,3.70
2019-06-07T07:58:18.665Z,3.37
2019-06-07T08:00:56.972Z,3.60
2019-06-07T08:03:24.795Z,3.10
2019-06-07T08:05:58.968Z,3.20
2019-06-07T08:08:29.915Z,3.40
2019-06-07T08:11:02.389Z,3.93
2019-06-07T08:13:34.262Z,3.83
2019-06-07T08:16:12.498Z,4.40
2019-06-07T08:18:40.203Z,4.07
2019-06-07T08:21:24.571Z,3.80
2019-06-07T08:23:47.415Z,3.90
2019-06-07T08:26:18.738Z,3.50
2019-06-07T08:28:53.226Z,3.90
2019-06-07T08:31:23.735Z,3.60
2019-06-07T08:33:58.324Z,3.63
2019-06-07T08:36:41.345Z,3.60
2019-06-07T08:39:07.585Z,3.80
2019-06-07T08:41:36.557Z,3.53
2019-06-07T08:44:22.882Z,4.10
2019-06-07T08:46:41.860Z,3.00
2019-06-07T08:49:14.211Z,3.30
2019-06-07T08:51:45.866Z,3.10
2019-06-07T08:54:22.855Z,3.37
2019-06-07T08:56:53.687Z,3.80
2019-06-07T08:59:24.385Z,4.80
2019-06-07T09:01:59.743Z,3.37
2019-06-07T09:04:30.017Z,3.83
2019-06-07T09:07:09.109Z,3.30
2019-06-07T09:09:35.032Z,3.00
2019-06-07T09:12:10.737Z,2.87
2019-06-07T09:14:59.027Z,3.57
2019-06-07T09:17:13.523Z,3.17
2019-06-07T09:19:45.601Z,2.80
2019-06-07T09:22:17.243Z,2.50
2019-06-07T09:24:48.880Z,2.73
2019-06-07T09:27:20.536Z,2.60
2019-06-07T09:29:52.874Z,2.90
2019-06-07T09:32:24.493Z,3.23
2019-06-07T09:35:02.458Z,2.90
2019-06-07T09:40:19.632Z,3.03
2019-06-07T09:42:37.260Z,3.00
2019-06-07T09:45:13.763Z,2.50
2019-06-07T09:47:43.205Z,3.07
2019-06-07T09:50:15.672Z,2.60
2019-06-07T09:52:58.585Z,2.70
2019-06-07T09:55:24.777Z,2.73
2019-06-07T09:57:54.240Z,2.97
2019-06-07T10:00:40.802Z,3.00
2019-06-07T10:03:07.925Z,2.73
2019-06-07T10:05:34.199Z,3.07
2019-06-07T10:08:40.796Z,2.80
2019-06-07T10:10:42.654Z,2.53
2019-06-07T10:13:13.037Z,3.33
2019-06-07T10:15:44.701Z,3.03
2019-06-07T10:18:16.407Z,2.40
2019-06-07T10:20:49.069Z,2.90
2019-06-07T10:23:20.961Z,2.57
2019-06-07T10:25:52.648Z,3.00
2019-06-07T10:28:24.449Z,2.97
2019-06-07T10:30:56.200Z,2.57
2019-06-07T10:33:27.881Z,2.27
2019-06-07T10:36:00.356Z,2.57
2019-06-07T10:38:32.983Z,2.20
2019-06-07T10:41:04.814Z,2.53
2019-06-07T10:43:36.441Z,2.53
2019-06-07T10:46:09.911Z,3.00
2019-06-07T10:48:42.012Z,2.50
2019-06-07T10:51:14.837Z,2.73
2019-06-07T10:53:47.086Z,2.87
2019-06-07T10:56:18.805Z,2.47
2019-06-07T10:58:50.467Z,2.40
2019-06-07T11:01:22.394Z,3.00
2019-06-07T11:03:55.673Z,3.03
2019-06-07T11:06:27.446Z,2.37
2019-06-07T11:08:59.714Z,2.53
2019-06-07T11:11:32.853Z,2.60
2019-06-07T11:14:06.424Z,2.23
2019-06-07T11:16:38.226Z,2.63
2019-06-07T11:19:13.686Z,2.00
2019-06-07T11:21:43.524Z,2.37
2019-06-07T11:24:18.655Z,2.30
2019-06-07T11:26:48.732Z,2.50
2019-06-07T11:29:21.435Z,2.57
2019-06-07T11:31:53.111Z,2.33
2019-06-07T11:34:25.345Z,2.47
2019-06-07T11:36:57.254Z,2.80
2019-06-07T11:39:28.950Z,2.23
2019-06-07T11:42:01.211Z,2.23
2019-06-07T11:44:33.594Z,2.13
2019-06-07T11:47:06.410Z,2.53
2019-06-07T11:49:38.640Z,1.97
2019-06-07T11:52:11.411Z,2.50
2019-06-07T11:54:43.093Z,2.20
2019-06-07T11:57:15.268Z,2.90
2019-06-07T11:59:47.623Z,2.33
2019-06-07T12:02:19.590Z,2.80
2019-06-07T12:04:51.270Z,2.53
2019-06-07T12:07:22.936Z,2.40
2019-06-07T12:09:56.743Z,2.70
2019-06-07T12:12:28.628Z,2.20
2019-06-07T12:15:00.994Z,2.10
2019-06-07T12:17:32.683Z,3.10
2019-06-07T12:20:08.593Z,3.03
2019-06-07T12:22:39.956Z,3.47
2019-06-07T12:25:16.121Z,2.27
2019-06-07T12:27:47.175Z,2.40
2019-06-07T12:30:27.720Z,2.60
2019-06-07T12:32:56.205Z,2.30
2019-06-07T12:35:28.401Z,2.97
2019-06-07T12:38:00.349Z,2.50
2019-06-07T12:40:32.583Z,2.90
2019-06-07T12:43:04.470Z,2.77
2019-06-07T12:45:44.885Z,2.50
2019-06-07T12:48:10.133Z,2.50
2019-06-07T12:50:43.563Z,2.83
2019-06-07T12:53:15.660Z,2.47
2019-06-07T12:55:47.492Z,2.70
2019-06-07T12:58:27.178Z,2.60
2019-06-07T13:00:53.302Z,2.47
2019-06-07T13:03:25.061Z,2.73
2019-06-07T13:05:56.870Z,2.63
2019-06-07T13:08:28.551Z,3.20
2019-06-07T13:11:13.949Z,2.00
2019-06-07T13:13:33.696Z,3.00
2019-06-07T13:16:06.005Z,2.70
2019-06-07T13:18:37.675Z,2.63
2019-06-07T13:21:09.419Z,2.70
2019-06-07T13:23:44.232Z,2.80
2019-06-07T13:26:14.544Z,2.73
2019-06-07T13:28:46.223Z,3.00
2019-06-07T13:31:18.852Z,2.70
2019-06-07T13:33:50.723Z,2.60
2019-06-07T13:36:22.558Z,2.50
2019-06-07T13:38:54.256Z,2.60
2019-06-07T13:41:36.303Z,2.90
2019-06-07T13:43:59.702Z,2.43
2019-06-07T13:46:32.142Z,2.70
2019-06-07T13:49:03.998Z,2.50
2019-06-07T13:51:36.459Z,2.70
2019-06-07T13:54:08.233Z,2.70
2019-06-07T13:57:00.719Z,2.77
2019-06-07T13:59:13.269Z,2.73
2019-06-07T14:01:45.112Z,2.50
2019-06-07T14:04:18.804Z,2.67
2019-06-07T14:06:50.689Z,3.07
2019-06-07T14:09:23.285Z,2.47
2019-06-07T14:11:55.162Z,3.00
2019-06-07T14:14:27.518Z,2.57
2019-06-07T14:17:00.295Z,3.10
2019-06-07T14:19:32.763Z,2.63
2019-06-07T14:22:04.640Z,2.97
2019-06-07T14:24:36.380Z,2.73
2019-06-07T14:27:08.174Z,2.90
2019-06-07T14:29:40.290Z,2.80
2019-06-07T14:32:11.967Z,2.80
2019-06-07T14:34:44.298Z,2.70
2019-06-07T14:37:16.015Z,2.73
2019-06-07T14:39:47.726Z,3.00
2019-06-07T14:42:19.423Z,2.73
2019-06-07T14:44:51.129Z,2.67
2019-06-07T14:47:23.777Z,2.90
2019-06-07T14:49:56.215Z,2.80
2019-06-07T14:52:28.467Z,2.80
2019-06-07T14:55:00.184Z,3.10
2019-06-07T14:57:33.359Z,3.37
2019-06-07T15:00:11.328Z,3.00
2019-06-07T15:02:40.541Z,2.87
2019-06-07T15:05:13.065Z,3.27
2019-06-07T15:07:44.830Z,2.83
2019-06-07T15:10:16.670Z,2.57
2019-06-07T15:12:48.333Z,2.57
2019-06-07T15:15:20.228Z,2.73
2019-06-07T15:17:51.963Z,2.63
2019-06-07T15:20:24.382Z,2.97
2019-06-07T15:22:56.079Z,3.50
2019-06-07T15:25:29.076Z,3.27
2019-06-07T15:28:00.899Z,3.47
2019-06-07T15:30:33.670Z,3.03
2019-06-07T15:33:05.666Z,2.33
2019-06-07T15:35:39.102Z,2.57
2019-06-07T15:38:10.884Z,2.73
2019-06-07T15:40:42.596Z,2.70
2019-06-07T15:43:14.333Z,2.67
2019-06-07T15:45:46.898Z,3.00
2019-06-07T15:48:18.660Z,3.30
2019-06-07T15:50:51.105Z,4.30
2019-06-07T15:53:22.788Z,3.20
2019-06-07T15:55:54.535Z,3.40
2019-06-07T15:58:26.394Z,3.17
2019-06-07T16:00:58.098Z,3.67
2019-06-07T16:03:31.392Z,3.20
2019-06-07T16:06:03.899Z,3.77
2019-06-07T16:08:36.323Z,3.37
2019-06-07T16:11:08.221Z,3.40
2019-06-07T16:13:40.810Z,3.20
2019-06-07T16:16:12.624Z,2.93
2019-06-07T16:18:44.356Z,2.90
2019-06-07T16:21:16.705Z,3.50
2019-06-07T16:23:48.534Z,2.97
2019-06-07T16:26:20.317Z,2.77
2019-06-07T16:28:52.164Z,2.87
2019-06-07T16:31:23.827Z,2.90
2019-06-07T16:33:55.662Z,3.00
2019-06-07T16:36:27.357Z,2.37
2019-06-07T16:38:59.337Z,2.57
2019-06-07T16:41:31.785Z,2.90
2019-06-07T16:44:03.523Z,3.47
2019-06-07T16:46:36.732Z,2.90
2019-06-07T16:49:08.666Z,2.57
2019-06-07T16:51:41.293Z,2.10
2019-06-07T16:54:13.526Z,2.30
2019-06-07T16:56:48.076Z,1.80
2019-06-07T16:59:18.685Z,1.70
2019-06-07T17:01:50.374Z,1.73
2019-06-07T17:04:22.049Z,1.77
2019-06-07T17:06:53.971Z,2.00
2019-06-07T17:09:26.029Z,1.53
2019-06-07T17:11:57.694Z,1.60
2019-06-07T17:14:29.407Z,1.57
2019-06-07T17:17:01.042Z,2.03
2019-06-07T17:19:32.721Z,1.30
2019-06-07T17:22:04.640Z,1.40
2019-06-07T17:24:37.062Z,1.20
2019-06-07T17:27:08.747Z,1.30
2019-06-07T17:29:41.880Z,1.13
2019-06-07T17:32:15.977Z,1.43
2019-06-07T17:34:48.172Z,1.40
2019-06-07T17:37:20.119Z,1.67
2019-06-07T17:39:52.378Z,1.30
2019-06-07T17:42:24.120Z,1.30
2019-06-07T17:44:55.865Z,1.20
2019-06-07T17:47:27.687Z,1.17
2019-06-07T17:49:59.414Z,1.10
2019-06-07T17:52:31.431Z,1.20
2019-06-07T17:55:04.084Z,1.10
2019-06-07T17:57:35.817Z,1.30
2019-06-07T18:00:27.716Z,1.67
2019-06-07T18:02:44.796Z,1.23
2019-06-07T18:05:16.677Z,1.07
2019-06-07T18:07:51.805Z,1.20
2019-06-07T18:15:44.356Z,1.20
2019-06-07T18:18:16.263Z,1.17
2019-06-07T18:20:49.218Z,1.10
2019-06-07T18:23:21.117Z,1.37
2019-06-07T18:25:52.910Z,1.00
2019-06-07T18:28:25.126Z,1.20
2019-06-07T18:30:57.056Z,1.53
2019-06-07T18:33:28.933Z,1.20
2019-06-07T18:36:00.830Z,1.20
2019-06-07T18:38:32.688Z,1.10
2019-06-07T18:41:04.526Z,1.20
2019-06-07T18:43:36.234Z,1.10
2019-06-07T18:46:07.984Z,1.10
2019-06-07T18:48:39.799Z,1.10
2019-06-07T18:51:11.624Z,1.30
2019-06-07T18:53:43.401Z,1.13
2019-06-07T18:56:15.206Z,1.00
2019-06-07T18:58:47.255Z,1.20
2019-06-07T19:01:19.066Z,1.10
2019-06-07T19:03:52.102Z,1.00
2019-06-07T19:06:23.947Z,1.23
2019-06-07T19:08:57.958Z,1.30
2019-06-07T19:11:29.402Z,1.13
2019-06-07T19:14:01.388Z,1.47
2019-06-07T19:16:33.268Z,1.20
2019-06-07T19:19:05.535Z,1.37
2019-06-07T19:21:39.088Z,1.10
2019-06-07T19:24:10.883Z,1.30
2019-06-07T19:26:42.564Z,1.10
2019-06-07T19:29:14.322Z,1.10
2019-06-07T19:31:46.016Z,1.13
2019-06-07T19:34:18.727Z,1.27
2019-06-07T19:36:51.478Z,1.27
2019-06-07T19:39:23.303Z,1.00
2019-06-07T19:41:55.911Z,1.40
2019-06-07T19:44:28.074Z,1.67
2019-06-07T19:47:00.606Z,1.10
2019-06-07T19:49:32.910Z,1.20
2019-06-07T19:52:04.724Z,1.20
2019-06-07T19:54:36.541Z,1.20
2019-06-07T19:57:08.570Z,1.17
2019-06-07T19:59:40.280Z,1.10
2019-06-07T20:02:12.612Z,1.20
2019-06-07T20:04:45.038Z,1.20
2019-06-07T20:07:16.906Z,1.10
2019-06-07T20:09:48.667Z,1.47
2019-06-07T20:12:20.485Z,1.10
2019-06-07T20:14:55.371Z,1.33
2019-06-07T20:17:25.637Z,1.83
2019-06-07T20:19:58.277Z,1.50
2019-06-07T20:22:30.061Z,1.20
2019-06-07T20:25:03.092Z,1.20
2019-06-07T20:27:34.982Z,1.30
2019-06-07T20:30:08.590Z,1.20
2019-06-07T20:32:40.405Z,1.20
2019-06-07T20:35:12.870Z,1.50
2019-06-07T20:37:44.561Z,1.43
2019-06-07T20:40:24.651Z,1.20
2019-06-07T20:42:50.166Z,1.27
2019-06-07T20:45:33.233Z,1.10
2019-06-07T20:47:55.286Z,1.23
2019-06-07T20:50:27.668Z,1.10
2019-06-07T20:53:01.221Z,1.70
2019-06-07T20:55:34.522Z,1.00
2019-06-07T20:58:07.282Z,1.20
2019-06-07T21:00:39.448Z,1.40
2019-06-07T21:03:11.173Z,1.37
2019-06-07T21:05:43.329Z,1.27
2019-06-07T21:08:15.063Z,1.10
2019-06-07T21:10:47.061Z,1.20
2019-06-07T21:13:18.743Z,1.30
2019-06-07T21:15:50.560Z,1.40
2019-06-07T21:18:22.492Z,1.10
2019-06-07T21:20:54.523Z,1.20
2019-06-07T21:23:26.292Z,1.20
2019-06-07T21:25:58.082Z,1.10
2019-06-07T21:28:29.872Z,1.40
2019-06-07T21:31:03.406Z,1.00
2019-06-07T21:33:35.250Z,1.00
2019-06-07T21:36:07.834Z,1.10
2019-06-07T21:38:39.722Z,1.30
2019-06-07T21:41:12.628Z,1.17
2019-06-07T21:43:44.432Z,1.10
2019-06-07T21:46:20.466Z,1.30
2019-06-07T21:48:49.512Z,1.30
2019-06-07T21:51:21.420Z,1.50
2019-06-07T21:53:53.753Z,1.47
2019-06-07T21:56:25.862Z,1.00
2019-06-07T21:58:57.527Z,1.07
2019-06-07T22:01:30.891Z,1.30
2019-06-07T22:04:03.516Z,1.13
2019-06-07T22:06:35.307Z,1.10
2019-06-07T22:09:10.087Z,1.23
2019-06-07T22:11:41.788Z,1.50
2019-06-07T22:14:14.535Z,1.43
2019-06-07T22:16:46.395Z,1.40
2019-06-07T22:19:18.171Z,1.40
2019-06-07T22:22:02.129Z,1.30
2019-06-07T22:24:24.007Z,1.20
2019-06-07T22:26:55.721Z,1.10
2019-06-07T22:29:27.360Z,1.40
2019-06-07T22:31:59.075Z,1.23
2019-06-07T22:34:30.842Z,1.30
2019-06-07T22:37:02.610Z,1.70
2019-06-07T22:39:35.019Z,1.17
2019-06-07T22:42:06.770Z,1.27
2019-06-07T22:44:40.137Z,1.23
2019-06-07T22:47:12.105Z,1.20
2019-06-07T22:49:43.781Z,1.10
2019-06-07T22:52:16.869Z,1.37
2019-06-07T22:54:49.523Z,1.30
2019-06-07T22:57:24.811Z,1.20
2019-06-07T22:59:56.532Z,1.27
2019-06-07T23:02:28.328Z,1.30
2019-06-07T23:05:04.454Z,1.40
2019-06-07T23:07:33.718Z,1.10
2019-06-07T23:10:06.791Z,1.60
2019-06-07T23:12:38.442Z,1.30
2019-06-07T23:15:11.490Z,1.27
2019-06-07T23:17:43.241Z,1.10
2019-06-07T23:20:15.926Z,1.10
2019-06-07T23:22:47.604Z,1.10
2019-06-07T23:25:24.224Z,1.20
2019-06-07T23:27:53.636Z,1.10
2019-06-07T23:30:26.209Z,1.27
2019-06-07T23:32:58.967Z,1.20
2019-06-07T23:35:30.700Z,1.23
2019-06-07T23:38:02.474Z,1.30
2019-06-07T23:40:34.735Z,1.20
2019-06-07T23:43:06.470Z,1.57
2019-06-07T23:45:38.808Z,1.27
2019-06-07T23:48:11.247Z,1.77
2019-06-07T23:50:42.922Z,1.30
2019-06-07T23:53:15.637Z,1.40
2019-06-07T23:55:47.857Z,1.30
2019-06-07T23:58:20.586Z,1.40
